Time;durP1;ratioP1;P1;durP2;ratioP2;P2;SDS_P1;SDS_P2;PMS_P1;PMS_P2;Temp;Humidity;BMP_temperature;BMP_pressure;BME280_temperature;BME280_humidity;BME280_pressure;Samples;Min_cycle;Max_cycle;Signal;HPM_P1;HPM_P2
2023/06/15 00:05:38;;;;;;;;;;;16.00;99.90;;;;;;20908120;28;20007;-73
2023/06/15 00:15:39;;;;;;;;;;;15.80;99.90;;;;;;20907315;28;19923;-73
2023/06/15 00:25:40;;;;;;;;;;;15.70;99.90;;;;;;20907356;28;20232;-73
2023/06/15 00:35:40;;;;;;;;;;;15.50;99.90;;;;;;20906494;28;19924;-73
2023/06/15 00:45:41;;;;;;;;;;;15.00;99.90;;;;;;20906070;28;19975;-73
2023/06/15 00:55:42;;;;;;;;;;;14.80;99.90;;;;;;20905632;28;19989;-73
2023/06/15 01:05:44;;;;;;;;;;;14.80;99.90;;;;;;20916876;28;20296;-72
2023/06/15 01:15:46;;;;;;;;;;;14.50;99.90;;;;;;20920822;28;19920;-72
2023/06/15 01:25:49;;;;;;;;;;;14.30;99.90;;;;;;20919764;28;19980;-74
2023/06/15 01:35:49;;;;;;;;;;;14.10;99.90;;;;;;20923164;28;19924;-73
2023/06/15 01:45:51;;;;;;;;;;;14.10;99.90;;;;;;20929929;28;19948;-73
2023/06/15 01:55:52;;;;;;;;;;;13.70;99.90;;;;;;20917648;28;19916;-74
2023/06/15 02:05:52;;;;;;;;;;;13.50;99.90;;;;;;20931863;28;19917;-73
2023/06/15 02:15:53;;;;;;;;;;;13.30;99.90;;;;;;20915729;28;19917;-73
2023/06/15 02:25:56;;;;;;;;;;;13.40;99.90;;;;;;20913829;28;19917;-73
2023/06/15 02:35:57;;;;;;;;;;;13.20;99.90;;;;;;20950806;28;19920;-73
2023/06/15 02:45:58;;;;;;;;;;;12.90;99.90;;;;;;20840991;28;19955;-73
2023/06/15 02:56:01;;;;;;;;;;;12.70;99.90;;;;;;20830456;28;19917;-73
2023/06/15 03:06:06;;;;;;;;;;;12.50;99.90;;;;;;20824881;23;19933;-76
2023/06/15 03:16:15;;;;;;;;;;;12.60;99.90;;;;;;20826569;28;21453;-75
2023/06/15 03:26:17;;;;;;;;;;;12.40;99.90;;;;;;20824477;28;19991;-75
2023/06/15 03:36:18;;;;;;;;;;;12.00;99.90;;;;;;20840524;28;20370;-75
2023/06/15 03:46:19;;;;;;;;;;;12.00;99.90;;;;;;20821600;28;19913;-75
2023/06/15 03:56:20;;;;;;;;;;;11.90;99.90;;;;;;20837758;28;19917;-76
2023/06/15 04:06:24;;;;;;;;;;;11.70;99.90;;;;;;20837165;28;20399;-75
2023/06/15 04:16:25;;;;;;;;;;;11.60;99.90;;;;;;20836771;28;19960;-75
2023/06/15 04:26:27;;;;;;;;;;;11.60;99.90;;;;;;20820798;28;19975;-76
2023/06/15 04:36:31;;;;;;;;;;;12.50;99.90;;;;;;20826144;28;19971;-76
2023/06/15 04:46:32;;;;;;;;;;;13.30;99.90;;;;;;20834931;28;20399;-76
2023/06/15 04:56:33;;;;;;;;;;;13.90;99.90;;;;;;20834224;28;19917;-75
2023/06/15 05:06:33;;;;;;;;;;;14.40;99.90;;;;;;20834077;28;20090;-76
2023/06/15 05:16:34;;;;;;;;;;;14.40;99.90;;;;;;20833958;28;19924;-76
2023/06/15 05:26:36;;;;;;;;;;;14.80;99.90;;;;;;20832951;28;19921;-76
2023/06/15 05:36:41;;;;;;;;;;;15.20;99.90;;;;;;20832095;28;19921;-77
2023/06/15 05:46:42;;;;;;;;;;;15.10;99.90;;;;;;20847637;28;19919;-76
2023/06/15 05:56:43;;;;;;;;;;;15.70;99.90;;;;;;20846665;28;19971;-76
2023/06/15 06:06:44;;;;;;;;;;;16.30;99.90;;;;;;20829406;28;19921;-76
2023/06/15 06:16:45;;;;;;;;;;;16.10;99.90;;;;;;20828902;28;19923;-76
2023/06/15 06:26:46;;;;;;;;;;;16.80;99.90;;;;;;20844784;28;19956;-77
2023/06/15 06:36:46;;;;;;;;;;;17.10;99.90;;;;;;20827567;28;20123;-77
2023/06/15 06:46:47;;;;;;;;;;;17.80;99.90;;;;;;20828249;28;20406;-77
2023/06/15 06:56:48;;;;;;;;;;;18.50;99.90;;;;;;20825058;28;20016;-76
2023/06/15 07:06:48;;;;;;;;;;;18.90;99.90;;;;;;20827471;28;20043;-76
2023/06/15 07:16:49;;;;;;;;;;;18.80;99.90;;;;;;20825757;28;20026;-77
2023/06/15 07:26:50;;;;;;;;;;;18.10;99.90;;;;;;20812420;28;19913;-76
2023/06/15 07:36:50;;;;;;;;;;;19.40;99.90;;;;;;20823154;28;19943;-76
2023/06/15 07:46:51;;;;;;;;;;;19.40;99.90;;;;;;20838976;28;19913;-77
2023/06/15 07:56:51;;;;;;;;;;;20.80;99.90;;;;;;20822724;28;20312;-77
2023/06/15 08:06:52;;;;;;;;;;;22.00;98.90;;;;;;20820277;28;19923;-77
2023/06/15 08:16:53;;;;;;;;;;;22.60;97.80;;;;;;20820506;28;20003;-77
2023/06/15 08:26:54;;;;;;;;;;;23.40;97.50;;;;;;20820774;28;19980;-75
2023/06/15 08:36:56;;;;;;;;;;;22.90;96.80;;;;;;20816444;28;19918;-77
2023/06/15 08:46:57;;;;;;;;;;;23.80;95.70;;;;;;20754817;28;20004;-77
2023/06/15 08:56:58;;;;;;;;;;;25.10;92.50;;;;;;20820210;28;20018;-77
2023/06/15 09:06:58;;;;;;;;;;;25.50;90.60;;;;;;20820716;28;20241;-76
2023/06/15 09:16:59;;;;;;;;;;;24.90;91.20;;;;;;20820075;28;19921;-76
2023/06/15 09:27:00;;;;;;;;;;;25.90;90.30;;;;;;20829827;28;20351;-77
2023/06/15 09:37:01;;;;;;;;;;;26.40;89.00;;;;;;20833694;28;19942;-77
2023/06/15 09:47:02;;;;;;;;;;;25.90;90.00;;;;;;20820148;28;19939;-77
2023/06/15 09:57:04;;;;;;;;;;;27.10;84.40;;;;;;20804781;28;19975;-77
2023/06/15 10:07:05;;;;;;;;;;;27.00;86.00;;;;;;20833915;28;19924;-78
2023/06/15 10:17:08;;;;;;;;;;;28.10;79.60;;;;;;20845261;28;19948;-78
2023/06/15 10:27:09;;;;;;;;;;;28.20;77.50;;;;;;20829850;28;19916;-78
2023/06/15 10:37:17;;;;;;;;;;;27.60;77.10;;;;;;20822911;28;20291;-79
2023/06/15 10:47:20;;;;;;;;;;;27.50;76.10;;;;;;20746994;28;19941;-78
2023/06/15 10:57:27;;;;;;;;;;;28.00;74.40;;;;;;20747395;28;19929;-79
2023/06/15 11:07:29;;;;;;;;;;;27.20;73.70;;;;;;20754064;28;19913;-80
2023/06/15 11:17:30;;;;;;;;;;;27.40;76.60;;;;;;20826138;28;19917;-80
2023/06/15 11:27:31;;;;;;;;;;;28.00;72.40;;;;;;20825078;28;19960;-79
2023/06/15 11:37:32;;;;;;;;;;;28.20;72.90;;;;;;20817074;28;19921;-80
2023/06/15 11:47:40;;;;;;;;;;;29.00;71.90;;;;;;20785365;28;19960;-79
2023/06/15 11:57:41;;;;;;;;;;;28.20;71.50;;;;;;20823670;28;19956;-80
2023/06/15 12:07:42;;;;;;;;;;;28.20;74.00;;;;;;20822883;28;19925;-78
2023/06/15 12:17:43;;;;;;;;;;;26.40;74.90;;;;;;20823088;28;19913;-81
2023/06/15 12:27:45;;;;;;;;;;;25.70;75.60;;;;;;20821930;28;19958;-78
2023/06/15 12:37:48;;;;;;;;;;;25.40;79.00;;;;;;20821526;28;19999;-79
2023/06/15 12:47:49;;;;;;;;;;;25.90;76.30;;;;;;20819462;28;19924;-79
2023/06/15 12:57:50;;;;;;;;;;;27.00;77.10;;;;;;20826278;28;19921;-79
2023/06/15 13:07:51;;;;;;;;;;;28.40;73.20;;;;;;20838013;28;19917;-80
2023/06/15 13:17:51;;;;;;;;;;;28.50;72.00;;;;;;20838058;28;19967;-79
2023/06/15 13:27:52;;;;;;;;;;;27.90;71.80;;;;;;20834573;28;19948;-79
2023/06/15 13:37:53;;;;;;;;;;;27.50;70.70;;;;;;20835398;28;20553;-79
2023/06/15 13:47:54;;;;;;;;;;;27.00;73.40;;;;;;20838768;28;20402;-78
2023/06/15 13:57:55;;;;;;;;;;;27.40;71.30;;;;;;20835732;28;19917;-80
2023/06/15 14:07:55;;;;;;;;;;;27.40;70.70;;;;;;20826343;28;20039;-77
2023/06/15 14:17:56;;;;;;;;;;;27.20;74.40;;;;;;20826514;28;20128;-79
2023/06/15 14:27:57;;;;;;;;;;;26.60;79.20;;;;;;20824952;28;20016;-77
2023/06/15 14:37:57;;;;;;;;;;;25.80;75.10;;;;;;20816198;28;20411;-78
2023/06/15 14:47:58;;;;;;;;;;;25.50;77.10;;;;;;20813245;28;19917;-77
2023/06/15 14:57:58;;;;;;;;;;;25.50;79.20;;;;;;20815239;28;19923;-78
2023/06/15 15:07:59;;;;;;;;;;;25.00;82.50;;;;;;20821969;28;20196;-76
2023/06/15 15:18:00;;;;;;;;;;;24.50;85.80;;;;;;20828075;28;19913;-77
2023/06/15 15:28:00;;;;;;;;;;;24.20;90.40;;;;;;20827370;28;19917;-77
2023/06/15 15:38:01;;;;;;;;;;;24.20;91.40;;;;;;20822720;28;19913;-77
2023/06/15 15:48:02;;;;;;;;;;;25.20;91.10;;;;;;20825731;28;19924;-77
2023/06/15 15:58:03;;;;;;;;;;;24.30;92.10;;;;;;20818702;28;20008;-76
2023/06/15 16:08:04;;;;;;;;;;;23.80;91.70;;;;;;20826527;28;20014;-77
2023/06/15 16:18:04;;;;;;;;;;;23.50;93.60;;;;;;20811794;28;20313;-79
2023/06/15 16:28:05;;;;;;;;;;;23.60;93.50;;;;;;20825487;28;19971;-77
2023/06/15 16:38:06;;;;;;;;;;;24.20;93.10;;;;;;20841039;28;20004;-77
2023/06/15 16:48:06;;;;;;;;;;;24.60;92.00;;;;;;20834012;28;19971;-77
2023/06/15 16:58:07;;;;;;;;;;;24.70;91.90;;;;;;20836106;28;19976;-77
2023/06/15 17:08:11;;;;;;;;;;;25.10;91.10;;;;;;20836139;28;19917;-76
2023/06/15 17:18:12;;;;;;;;;;;25.00;91.40;;;;;;20835250;28;19913;-77
2023/06/15 17:28:12;;;;;;;;;;;25.20;89.80;;;;;;20835695;28;19995;-77
2023/06/15 17:38:13;;;;;;;;;;;24.90;90.20;;;;;;20850242;28;19939;-73
2023/06/15 17:48:13;;;;;;;;;;;25.00;90.70;;;;;;20831526;28;19953;-76
2023/06/15 17:58:15;;;;;;;;;;;24.70;90.40;;;;;;20831380;28;19924;-77
2023/06/15 18:08:17;;;;;;;;;;;24.70;90.60;;;;;;20843896;28;19971;-74
2023/06/15 18:18:18;;;;;;;;;;;24.30;91.00;;;;;;20857908;28;19921;-78
2023/06/15 18:28:20;;;;;;;;;;;24.20;91.10;;;;;;20880015;28;20007;-76
2023/06/15 18:38:21;;;;;;;;;;;24.60;92.30;;;;;;20857066;28;19917;-78
2023/06/15 18:48:22;;;;;;;;;;;23.60;94.30;;;;;;20828699;28;19921;-77
2023/06/15 18:58:23;;;;;;;;;;;22.50;96.60;;;;;;20834140;28;19928;-77
2023/06/15 19:08:23;;;;;;;;;;;20.80;99.90;;;;;;20835405;28;19923;-78
2023/06/15 19:18:24;;;;;;;;;;;20.10;99.90;;;;;;20836521;28;19991;-76
2023/06/15 19:28:25;;;;;;;;;;;20.10;99.90;;;;;;20836242;28;19924;-77
2023/06/15 19:38:25;;;;;;;;;;;19.90;99.90;;;;;;20829364;28;20353;-78
2023/06/15 19:48:26;;;;;;;;;;;19.60;99.90;;;;;;20843858;28;19963;-76
2023/06/15 19:58:27;;;;;;;;;;;19.60;99.90;;;;;;20830152;28;19967;-78
2023/06/15 20:08:30;;;;;;;;;;;20.00;99.90;;;;;;20835620;28;20440;-77
2023/06/15 20:18:31;;;;;;;;;;;19.60;99.90;;;;;;20852758;28;19940;-77
2023/06/15 20:28:34;;;;;;;;;;;19.50;99.90;;;;;;20842745;28;19917;-76
2023/06/15 20:38:35;;;;;;;;;;;18.80;99.90;;;;;;20873134;28;19939;-78
2023/06/15 20:48:36;;;;;;;;;;;19.30;99.90;;;;;;20868204;28;19925;-78
2023/06/15 20:58:36;;;;;;;;;;;19.10;99.90;;;;;;20877054;28;19917;-78
2023/06/15 21:08:38;;;;;;;;;;;18.80;99.90;;;;;;20862383;23;20016;-73
2023/06/15 21:18:39;;;;;;;;;;;18.10;99.90;;;;;;20816849;28;19913;-74
2023/06/15 21:28:40;;;;;;;;;;;18.30;99.90;;;;;;20834998;28;19943;-73
2023/06/15 21:38:40;;;;;;;;;;;18.30;99.90;;;;;;20834434;28;19913;-72
2023/06/15 21:48:41;;;;;;;;;;;18.70;99.90;;;;;;20836359;28;20351;-71
2023/06/15 21:58:41;;;;;;;;;;;18.90;99.90;;;;;;20839496;28;19935;-71
2023/06/15 22:08:42;;;;;;;;;;;18.90;99.90;;;;;;20836862;28;19963;-71
2023/06/15 22:18:43;;;;;;;;;;;18.90;99.90;;;;;;20834807;28;19921;-71
2023/06/15 22:28:44;;;;;;;;;;;19.00;99.90;;;;;;20832805;28;19917;-70
2023/06/15 22:38:44;;;;;;;;;;;18.60;99.90;;;;;;20824483;28;20007;-70
2023/06/15 22:48:46;;;;;;;;;;;18.40;99.90;;;;;;20821222;28;20314;-70
2023/06/15 22:58:47;;;;;;;;;;;17.40;99.90;;;;;;20830700;28;19913;-72
2023/06/15 23:08:48;;;;;;;;;;;16.50;99.90;;;;;;20825284;28;19949;-72
2023/06/15 23:18:48;;;;;;;;;;;16.30;99.90;;;;;;20829377;28;19952;-72
2023/06/15 23:28:54;;;;;;;;;;;16.20;99.90;;;;;;20829137;28;19925;-72
2023/06/15 23:38:54;;;;;;;;;;;16.00;99.90;;;;;;20834570;28;19919;-72
2023/06/15 23:48:55;;;;;;;;;;;16.40;99.90;;;;;;20828147;28;19964;-72
2023/06/15 23:58:56;;;;;;;;;;;16.30;99.90;;;;;;20826746;28;20002;-72
